Walnut Ridge, AR

4:49 PM CDT on March 28, 2017 (GMT -0500)
Walnut Ridge Regional

Weather History for KARG - May, 2014

Change the Weather History Date:

Wednesday, May 14, 2014

  Actual Average Record
Temperature  
Mean Temperature 50 °F -  
Max Temperature 55 °F 77 °F 87 °F (2001)
Min Temperature 46 °F 57 °F 46 °F (2000)
Degree Days  
Heating Degree Days 14    
Moisture  
Dew Point 46 °F    
Average Humidity 84    
Maximum Humidity 94    
Minimum Humidity 54    
Precipitation  
Precipitation 1.25 in - - ()
Sea Level Pressure  
Sea Level Pressure 30.09 in    
Wind  
Wind Speed 14 mph (NNW)    
Max Wind Speed 23 mph    
Max Gust Speed 30 mph    
Visibility 9 miles    
Events      
Averages and records for this station are not official NWS values.
T = Trace of Precipitation, MM = Missing Value Source: NWS Daily Summary

Daily Weather History Graph

Daily Weather History Graph

Search for Another Location

Airport or City:

Trip Planner

Search our weather history database for the weather conditions in past years. The results will help you decide how hot, cold, wet, or windy it might be!

Date:

Astronomy

May. 14, 2014 Rise Set
Actual Time 5:58 AM CDT 8:02 PM CDT
Civil Twilight 5:29 AM CDT 8:30 PM CDT
Nautical Twilight 4:55 AM CDT 9:05 PM CDT
Astronomical Twilight 4:17 AM CDT 9:43 PM CDT
Moon 8:08 PM CDT (5/14) 5:55 AM CDT (5/14)
Length of Visible Light 15h 00m
Length of Day
14h 03m
Full, 100% of the Moon is Illuminated
May 14
Full
May 14
Full
May 21
Last Quarter
May 28
New
Jun 5
First Quarter

Hourly Weather History & Observations

Time (CDT) Temp. Windchill Dew Point Humidity Pressure Visibility Wind Dir Wind Speed Gust Speed Precip Events Conditions
12:15 AM 55.4 °F - 53.6 °F 94% 30.18 in 9.0 mi North 10.4 mph - 0.07 in   Overcast
12:35 AM 55.4 °F - 53.6 °F 94% 30.17 in 10.0 mi North 11.5 mph - 0.09 in   Overcast
12:55 AM 55.4 °F - 53.6 °F 94% 30.16 in 10.0 mi North 11.5 mph - 0.09 in   Overcast
1:15 AM 55.4 °F - 53.6 °F 94% 30.15 in 10.0 mi North 13.8 mph - 0.03 in   Mostly Cloudy
1:35 AM 55.4 °F - 53.6 °F 94% 30.14 in 10.0 mi North 11.5 mph - 0.14 in   Overcast
1:55 AM 55.4 °F - 53.6 °F 94% 30.15 in 10.0 mi North 8.1 mph - 0.18 in   Overcast
2:15 AM 55.4 °F - 53.6 °F 94% 30.14 in 10.0 mi North 15.0 mph - 0.02 in   Overcast
2:35 AM 53.6 °F - 51.8 °F 94% 30.14 in 8.0 mi North 12.7 mph 17.3 mph 0.06 in   Overcast
2:55 AM 53.6 °F - 51.8 °F 94% 30.13 in 9.0 mi North 10.4 mph 16.1 mph 0.10 in   Overcast
3:15 AM 53.6 °F - 48.2 °F 82% 30.12 in 10.0 mi North 15.0 mph 21.9 mph 0.03 in   Overcast
3:35 AM 53.6 °F - 37.4 °F 54% 30.12 in 10.0 mi North 12.7 mph 20.7 mph 0.04 in   Overcast
4:15 AM 53.6 °F - 48.2 °F 82% 30.12 in 7.0 mi North 12.7 mph 19.6 mph 0.01 in   Overcast
4:35 AM 53.6 °F - 48.2 °F 82% 30.12 in 9.0 mi North 11.5 mph 17.3 mph 0.01 in   Overcast
4:55 AM 53.6 °F - 50.0 °F 88% 30.12 in 10.0 mi North 13.8 mph - 0.01 in   Overcast
5:15 AM 53.6 °F - 50.0 °F 88% 30.11 in 10.0 mi North 13.8 mph 19.6 mph N/A   Overcast
5:35 AM 53.6 °F - 50.0 °F 88% 30.09 in 10.0 mi North 15.0 mph 21.9 mph N/A   Overcast
5:55 AM 53.6 °F - 50.0 °F 88% 30.09 in 10.0 mi North 13.8 mph - N/A   Overcast
6:15 AM 53.6 °F - 50.0 °F 88% 30.09 in 10.0 mi NNE 17.3 mph 23.0 mph 0.01 in   Overcast
6:35 AM 53.6 °F - 48.2 °F 82% 30.08 in 10.0 mi North 17.3 mph 23.0 mph 0.02 in   Overcast
7:15 AM 51.8 °F - 44.6 °F 76% 30.07 in 10.0 mi NNE 17.3 mph 23.0 mph N/A   Mostly Cloudy
7:35 AM 51.8 °F - 44.6 °F 76% 30.07 in 8.0 mi NNE 15.0 mph 23.0 mph N/A   Mostly Cloudy
7:55 AM 51.8 °F - 46.4 °F 82% 30.08 in 3.0 mi NNE 13.8 mph - 0.06 in   Overcast
8:15 AM 51.8 °F - 44.6 °F 76% 30.10 in 10.0 mi NNW 12.7 mph - 0.06 in   Overcast
8:35 AM 51.8 °F - 39.2 °F 62% 30.11 in 9.0 mi NW 15.0 mph - 0.11 in   Overcast
8:55 AM 51.8 °F - 48.2 °F 88% 30.10 in 7.0 mi NNW 17.3 mph - 0.16 in   Overcast
10:15 AM 51.8 °F - 48.2 °F 88% 30.08 in 10.0 mi NNW 21.9 mph 29.9 mph 0.03 in   Mostly Cloudy
10:35 AM 51.8 °F - 48.2 °F 88% 30.08 in 9.0 mi NNW 20.7 mph - 0.05 in   Mostly Cloudy
10:55 AM 51.8 °F - 48.2 °F 88% 30.07 in 7.0 mi NNW 19.6 mph 27.6 mph 0.11 in   Overcast
11:15 AM 50.0 °F - 46.4 °F 87% 30.07 in 10.0 mi North 21.9 mph 29.9 mph 0.07 in   Overcast
11:35 AM 50.0 °F - 46.4 °F 87% 30.06 in 10.0 mi North 17.3 mph 26.5 mph 0.12 in   Overcast
11:55 AM 50.0 °F - 46.4 °F 87% 30.09 in 10.0 mi NNW 19.6 mph 26.5 mph 0.20 in   Mostly Cloudy
12:15 PM 50.0 °F - 46.4 °F 87% 30.09 in 9.0 mi North 13.8 mph - 0.11 in   Mostly Cloudy
12:35 PM 50.0 °F - 46.4 °F 87% 30.08 in 10.0 mi North 18.4 mph - 0.15 in   Overcast
12:55 PM 50.0 °F - 44.6 °F 82% 30.06 in 10.0 mi North 17.3 mph 25.3 mph 0.19 in   Overcast
1:15 PM 50.0 °F - 46.4 °F 87% 30.06 in 10.0 mi North 12.7 mph - 0.04 in   Overcast
1:35 PM 50.0 °F - 46.4 °F 87% 30.05 in 10.0 mi North 15.0 mph - 0.06 in   Mostly Cloudy
1:55 PM 51.8 °F - 48.2 °F 88% 30.03 in 10.0 mi North 13.8 mph - 0.07 in   Mostly Cloudy
2:15 PM 51.8 °F - 48.2 °F 88% 30.02 in 10.0 mi North 20.7 mph 26.5 mph N/A   Mostly Cloudy
2:35 PM 51.8 °F - 48.2 °F 88% 30.01 in 10.0 mi North 20.7 mph 25.3 mph N/A   Mostly Cloudy
2:55 PM 53.6 °F - 48.2 °F 82% 30.01 in 10.0 mi North 20.7 mph 24.2 mph N/A   Overcast
3:15 PM 53.6 °F - 46.4 °F 77% 29.98 in 10.0 mi North 18.4 mph 21.9 mph N/A   Overcast
3:35 PM 51.8 °F - 46.4 °F 82% 30.04 in 10.0 mi NNW 16.1 mph 20.7 mph N/A   Overcast
3:55 PM 51.8 °F - 44.6 °F 76% 30.05 in 10.0 mi NW 13.8 mph - N/A   Overcast
4:15 PM 51.8 °F - 44.6 °F 76% 30.06 in 10.0 mi NW 15.0 mph 20.7 mph N/A   Overcast
4:35 PM 50.0 °F - 44.6 °F 82% 30.06 in 4.0 mi NW 15.0 mph - N/A   Overcast
4:55 PM 50.0 °F - 46.4 °F 87% 30.06 in 3.0 mi NW 11.5 mph - N/A   Overcast
5:15 PM 50.0 °F - 46.4 °F 87% 30.07 in 10.0 mi NNW 16.1 mph - 0.01 in   Overcast
5:35 PM 50.0 °F - 46.4 °F 87% 30.07 in 6.0 mi NW 15.0 mph 19.6 mph 0.01 in   Overcast
5:55 PM 50.0 °F - 46.4 °F 87% 30.08 in 5.0 mi NW 15.0 mph - 0.01 in   Overcast
6:15 PM 48.2 °F - 44.6 °F 87% 30.08 in 2.5 mi NW 23.0 mph 27.6 mph N/A   Overcast
6:55 PM 48.2 °F - 42.8 °F 82% 30.09 in 10.0 mi NW 20.7 mph 25.3 mph N/A   Overcast
7:15 PM 48.2 °F - 42.8 °F 82% 30.09 in 10.0 mi NNW 20.7 mph 25.3 mph N/A   Overcast
7:35 PM 48.2 °F - 42.8 °F 82% 30.09 in 10.0 mi NNW 19.6 mph - N/A   Overcast
7:55 PM 48.2 °F - 42.8 °F 82% 30.10 in 10.0 mi NNW 21.9 mph 26.5 mph N/A   Mostly Cloudy
8:15 PM 48.2 °F - 41.0 °F 76% 30.11 in 10.0 mi NW 16.1 mph 21.9 mph N/A   Overcast
8:35 PM 48.2 °F - 42.8 °F 82% 30.11 in 10.0 mi NW 16.1 mph - N/A   Overcast
8:55 PM 48.2 °F - 41.0 °F 76% 30.12 in 10.0 mi NW 16.1 mph - N/A   Overcast
9:15 PM 48.2 °F - 39.2 °F 71% 30.13 in 10.0 mi NW 15.0 mph - N/A   Overcast
9:35 PM 46.4 °F 40.7 °F 39.2 °F 76% 30.14 in 10.0 mi NW 12.7 mph - N/A   Overcast
9:55 PM 46.4 °F 39.8 °F 42.8 °F 87% 30.14 in 10.0 mi NW 16.1 mph - N/A   Overcast
10:15 PM 46.4 °F 40.1 °F 42.8 °F 87% 30.13 in 10.0 mi NW 15.0 mph - N/A   Mostly Cloudy
10:35 PM 46.4 °F 40.7 °F 39.2 °F 76% 30.13 in 10.0 mi NW 12.7 mph - N/A   Mostly Cloudy
10:55 PM 46.4 °F 39.8 °F 42.8 °F 87% 30.12 in 10.0 mi NW 16.1 mph - 0.01 in   Partly Cloudy
11:15 PM 46.4 °F 41.1 °F 42.8 °F 87% 30.12 in 10.0 mi NW 11.5 mph - N/A   Clear
11:35 PM 46.4 °F 41.1 °F 42.8 °F 87% 30.12 in 10.0 mi NW 11.5 mph - N/A   Clear
11:55 PM 46.4 °F 40.1 °F 42.8 °F 87% 30.11 in 10.0 mi NNW 15.0 mph 19.6 mph N/A   Mostly Cloudy